Time;durP1;ratioP1;P1;durP2;ratioP2;P2;SDS_P1;SDS_P2;PMS_P1;PMS_P2;Temp;Humidity;BMP_temperature;BMP_pressure;BME280_temperature;BME280_humidity;BME280_pressure;Samples;Min_cycle;Max_cycle;Signal;HPM_P1;HPM_P2
2022/06/24 00:01:36;;;;;;;10.95;7.22;;;;;;;28.06;50.33;96787.25;5110954;28;20028;-35
2022/06/24 00:04:01;;;;;;;9.25;6.60;;;;;;;28.13;50.46;96778.22;5112026;28;20034;-35
2022/06/24 00:06:46;;;;;;;9.23;7.20;;;;;;;28.13;49.97;96783.06;5113643;28;20020;-36
2022/06/24 00:09:13;;;;;;;8.60;6.60;;;;;;;28.09;50.68;96775.00;5114062;28;20103;-35
2022/06/24 00:11:39;;;;;;;10.73;6.25;;;;;;;28.14;50.33;96787.34;5113741;28;20023;-34
2022/06/24 00:14:10;;;;;;;8.88;6.85;;;;;;;28.03;50.42;96777.16;5113712;28;20019;-35
2022/06/24 00:17:09;;;;;;;7.50;6.20;;;;;;;28.16;50.16;96773.63;5113665;28;20022;-35
2022/06/24 00:19:54;;;;;;;8.27;6.68;;;;;;;27.99;50.38;96768.34;5090784;28;20058;-35
2022/06/24 00:22:21;;;;;;;9.60;6.32;;;;;;;28.04;50.88;96763.97;5112707;28;20031;-35
2022/06/24 00:24:47;;;;;;;10.57;6.85;;;;;;;27.97;51.11;96765.34;5113575;28;20023;-35
2022/06/24 00:27:24;;;;;;;7.75;6.38;;;;;;;28.05;51.20;96766.22;5113566;28;20416;-35
2022/06/24 00:29:51;;;;;;;9.00;6.53;;;;;;;28.05;51.14;96757.88;5113562;28;20024;-35
2022/06/24 00:32:29;;;;;;;9.93;6.72;;;;;;;28.05;50.32;96760.66;5113988;28;20459;-34
2022/06/24 00:35:15;;;;;;;9.90;6.88;;;;;;;28.08;50.70;96753.97;5114694;28;20031;-35
2022/06/24 00:37:43;;;;;;;8.48;6.68;;;;;;;28.13;50.45;96747.56;5117840;28;20055;-35
2022/06/24 00:40:11;;;;;;;7.97;6.93;;;;;;;28.03;50.02;96752.06;5116096;28;20047;-34
2022/06/24 00:42:39;;;;;;;11.02;6.82;;;;;;;28.03;50.23;96748.53;5117256;28;20028;-34
2022/06/24 00:45:24;;;;;;;7.43;5.97;;;;;;;27.97;50.28;96745.84;5117496;28;20019;-35
2022/06/24 00:47:51;;;;;;;6.97;6.28;;;;;;;28.07;50.32;96741.31;5117345;28;20018;-36
2022/06/24 00:50:28;;;;;;;9.15;6.35;;;;;;;27.99;50.26;96742.53;5117380;28;20024;-35
2022/06/24 00:52:57;;;;;;;7.18;6.25;;;;;;;28.03;50.27;96735.34;5117256;27;20024;-35
2022/06/24 00:55:30;;;;;;;9.48;6.55;;;;;;;27.93;50.60;96727.94;5117413;28;20022;-35
2022/06/24 00:58:00;;;;;;;12.77;7.10;;;;;;;28.02;50.88;96724.72;5116932;28;20051;-35
2022/06/24 01:00:28;;;;;;;8.77;6.75;;;;;;;27.94;50.72;96729.44;5117023;28;20379;-34
2022/06/24 01:03:02;;;;;;;9.23;6.38;;;;;;;27.89;50.47;96731.81;5116926;28;20026;-35
2022/06/24 01:05:29;;;;;;;12.98;6.70;;;;;;;27.98;50.29;96727.81;5117215;28;20428;-35
2022/06/24 01:07:55;;;;;;;9.85;6.63;;;;;;;28.03;50.42;96724.19;5116893;28;20024;-35
2022/06/24 01:10:22;;;;;;;9.43;6.45;;;;;;;28.00;50.51;96711.31;5116805;28;20044;-35
2022/06/24 01:12:48;;;;;;;10.50;6.30;;;;;;;28.03;50.23;96715.06;5116805;28;20019;-35
2022/06/24 01:15:14;;;;;;;9.73;6.55;;;;;;;27.95;50.28;96714.94;5116944;28;20028;-35
2022/06/24 01:17:41;;;;;;;11.77;6.57;;;;;;;27.98;50.36;96708.31;5115357;28;20020;-35
2022/06/24 01:20:11;;;;;;;9.20;6.18;;;;;;;27.98;50.37;96715.94;5116869;28;20063;-35
2022/06/24 01:22:37;;;;;;;10.88;6.85;;;;;;;27.93;49.97;96709.19;5117077;28;20027;-35
2022/06/24 01:25:03;;;;;;;11.45;6.15;;;;;;;27.97;50.07;96715.16;5116523;28;20052;-35
2022/06/24 01:27:28;;;;;;;9.27;6.68;;;;;;;27.94;50.08;96707.91;5116980;28;20121;-36
2022/06/24 01:29:54;;;;;;;10.30;6.28;;;;;;;28.00;49.70;96710.56;5116401;28;20031;-35
2022/06/24 01:32:20;;;;;;;8.27;5.53;;;;;;;27.95;49.92;96701.00;5116318;28;20020;-35
2022/06/24 01:34:46;;;;;;;6.68;6.00;;;;;;;27.99;49.66;96700.69;5115033;28;20126;-35
2022/06/24 01:37:12;;;;;;;9.20;6.00;;;;;;;27.98;49.77;96702.75;5115366;28;20027;-35
2022/06/24 01:39:38;;;;;;;10.77;6.05;;;;;;;27.94;49.78;96705.13;5114968;28;20023;-35
2022/06/24 01:42:04;;;;;;;9.25;6.28;;;;;;;27.93;49.62;96703.63;5116105;28;20023;-35
2022/06/24 01:44:30;;;;;;;10.23;6.13;;;;;;;27.97;49.24;96695.66;5115860;28;20020;-35
2022/06/24 01:46:55;;;;;;;9.82;5.97;;;;;;;27.92;49.60;96687.41;5116282;28;20019;-35
2022/06/24 01:49:21;;;;;;;9.80;5.78;;;;;;;27.93;49.36;96681.31;5115054;28;20080;-35
2022/06/24 01:51:50;;;;;;;11.27;5.95;;;;;;;27.91;49.05;96683.88;5115913;28;20425;-35
2022/06/24 01:54:15;;;;;;;9.32;6.22;;;;;;;27.98;49.31;96674.09;5116728;28;20019;-36
2022/06/24 01:56:41;;;;;;;9.23;6.38;;;;;;;27.93;49.51;96680.56;5114006;28;20112;-35
2022/06/24 01:59:07;;;;;;;9.88;6.15;;;;;;;27.92;49.12;96687.41;5115783;28;20024;-35
2022/06/24 02:01:33;;;;;;;7.95;6.00;;;;;;;27.97;49.33;96687.28;5115834;28;20107;-35
2022/06/24 02:04:00;;;;;;;9.50;5.97;;;;;;;27.91;49.25;96685.91;5105776;28;20472;-35
2022/06/24 02:06:26;;;;;;;7.30;5.70;;;;;;;27.87;49.22;96691.81;5094263;28;20028;-35
2022/06/24 02:08:52;;;;;;;9.27;6.22;;;;;;;27.88;49.09;96687.75;5095268;28;20024;-35
2022/06/24 02:14:04;;;;;;;8.80;5.88;;;;;;;27.88;49.13;96676.59;5095795;28;20537;-34
2022/06/24 02:16:31;;;;;;;9.13;5.93;;;;;;;27.89;49.04;96672.50;5095195;28;20027;-35
2022/06/24 02:18:56;;;;;;;7.80;5.88;;;;;;;27.94;49.37;96665.34;5095396;28;20035;-35
2022/06/24 02:21:24;;;;;;;8.88;6.13;;;;;;;27.87;49.67;96670.25;5095096;28;20028;-36
2022/06/24 02:23:50;;;;;;;7.40;5.43;;;;;;;27.89;49.32;96664.16;5094923;28;20024;-35
2022/06/24 02:26:16;;;;;;;9.93;6.00;;;;;;;27.90;49.19;96668.44;5095060;28;20062;-35
2022/06/24 02:28:42;;;;;;;10.00;6.20;;;;;;;27.86;49.30;96670.78;5094954;28;20028;-35
2022/06/24 02:31:07;;;;;;;8.85;5.25;;;;;;;27.92;48.74;96665.88;5094949;28;20082;-35
2022/06/24 02:33:33;;;;;;;9.70;6.10;;;;;;;27.90;48.70;96665.66;5094836;28;20107;-35
2022/06/24 02:35:59;;;;;;;9.23;6.18;;;;;;;27.93;49.12;96658.25;5094882;28;20471;-36
2022/06/24 02:38:25;;;;;;;10.20;6.40;;;;;;;27.89;48.69;96669.72;5094622;28;20028;-35
2022/06/24 02:40:52;;;;;;;9.63;6.40;;;;;;;27.85;49.42;96666.50;5094671;28;20028;-35
2022/06/24 02:43:22;;;;;;;8.82;6.57;;;;;;;27.85;48.82;96672.06;5094721;28;20020;-35
2022/06/24 02:45:52;;;;;;;9.25;6.05;;;;;;;27.86;49.22;96684.72;5094496;28;20095;-35
2022/06/24 02:48:21;;;;;;;9.70;6.20;;;;;;;27.89;49.02;96678.09;5094629;28;20051;-35
2022/06/24 02:50:52;;;;;;;8.65;5.57;;;;;;;27.90;48.75;96682.38;5094682;28;20031;-35
2022/06/24 02:53:19;;;;;;;8.80;5.65;;;;;;;27.88;48.95;96679.38;5094523;28;20020;-36
2022/06/24 02:55:47;;;;;;;9.32;5.72;;;;;;;27.85;48.50;96672.84;5094581;28;20026;-36
2022/06/24 02:58:14;;;;;;;7.03;6.13;;;;;;;27.83;49.00;96674.66;5093675;28;20131;-35
2022/06/24 03:00:41;;;;;;;6.82;5.57;;;;;;;27.91;48.78;96675.53;5094253;28;20035;-35
2022/06/24 03:03:11;;;;;;;9.48;5.60;;;;;;;27.86;49.02;96671.53;5094436;28;20024;-35
2022/06/24 03:05:36;;;;;;;8.23;5.82;;;;;;;27.91;49.00;96667.16;5094272;28;20452;-35
2022/06/24 03:08:02;;;;;;;11.10;6.28;;;;;;;27.86;49.01;96671.53;5094567;28;20034;-35
2022/06/24 03:10:28;;;;;;;10.45;5.88;;;;;;;27.79;49.23;96666.63;5094148;28;20491;-36
2022/06/24 03:12:53;;;;;;;8.50;5.47;;;;;;;27.81;49.35;96668.88;5094098;28;20513;-36
2022/06/24 03:15:19;;;;;;;10.40;5.78;;;;;;;27.80;49.28;96673.72;5093911;28;20103;-35
2022/06/24 03:17:46;;;;;;;9.27;5.70;;;;;;;27.82;49.33;96664.78;5094163;28;20039;-35
2022/06/24 03:20:12;;;;;;;9.82;6.18;;;;;;;27.78;48.99;96675.53;5094208;28;20077;-35
2022/06/24 03:22:39;;;;;;;12.00;5.63;;;;;;;27.87;49.00;96673.06;5094125;28;20040;-35
2022/06/24 03:25:05;;;;;;;9.32;5.38;;;;;;;27.84;48.82;96674.13;5093910;28;20081;-35
2022/06/24 03:27:31;;;;;;;8.85;5.57;;;;;;;27.91;48.62;96678.31;5094132;28;20028;-35
2022/06/24 03:29:57;;;;;;;8.50;5.90;;;;;;;27.81;49.23;96675.22;5093919;28;20035;-35
2022/06/24 03:32:23;;;;;;;9.35;5.95;;;;;;;27.84;48.81;96676.16;5093943;28;20024;-35
2022/06/24 03:34:48;;;;;;;10.68;5.55;;;;;;;27.81;48.60;96677.25;5093719;28;20153;-35
2022/06/24 03:37:14;;;;;;;8.85;5.68;;;;;;;27.86;48.68;96676.38;5093506;28;20464;-35
2022/06/24 03:39:39;;;;;;;7.93;5.57;;;;;;;27.81;48.75;96680.03;5093718;28;20077;-36
2022/06/24 03:42:05;;;;;;;13.40;5.60;;;;;;;27.85;48.45;96677.66;5092303;28;20084;-35
2022/06/24 03:44:31;;;;;;;10.25;5.57;;;;;;;27.84;48.28;96678.94;5093510;28;20039;-35
2022/06/24 03:46:57;;;;;;;9.43;5.78;;;;;;;27.82;48.29;96684.28;5093568;28;20536;-35
2022/06/24 03:49:22;;;;;;;7.80;5.55;;;;;;;27.78;48.74;96686.66;5093820;28;20036;-34
2022/06/24 03:51:48;;;;;;;8.65;5.32;;;;;;;27.75;48.96;96687.72;5093588;28;20016;-36
2022/06/24 03:54:14;;;;;;;14.05;5.88;;;;;;;27.83;48.50;96696.94;5093778;28;20037;-36
2022/06/24 03:56:39;;;;;;;7.18;5.63;;;;;;;27.85;48.42;96702.75;5092009;28;20092;-35
2022/06/24 03:59:06;;;;;;;9.15;5.47;;;;;;;27.87;48.12;96700.16;5093307;28;20035;-35
2022/06/24 04:01:32;;;;;;;8.77;5.68;;;;;;;27.82;48.26;96689.88;5093472;28;20042;-35
2022/06/24 04:03:57;;;;;;;11.05;5.35;;;;;;;27.83;48.20;96691.38;5093601;28;20464;-35
2022/06/24 04:06:23;;;;;;;9.68;5.93;;;;;;;27.78;48.18;96686.66;5092135;28;20114;-35
2022/06/24 04:08:48;;;;;;;8.77;5.30;;;;;;;27.80;48.18;96684.09;5094042;28;20028;-35
2022/06/24 04:11:16;;;;;;;6.63;4.90;;;;;;;27.81;47.81;96686.34;5097548;28;20361;-35
2022/06/24 04:13:43;;;;;;;9.23;5.03;;;;;;;27.76;47.90;96689.25;5097519;28;20114;-35
2022/06/24 04:16:09;;;;;;;9.93;5.65;;;;;;;27.80;47.54;96689.69;5097415;28;20024;-35
2022/06/24 04:18:35;;;;;;;10.30;5.40;;;;;;;27.78;47.98;96686.66;5097559;28;20046;-35
2022/06/24 04:21:01;;;;;;;11.00;5.05;;;;;;;27.82;47.67;96689.88;5097625;28;20462;-35
2022/06/24 04:23:27;;;;;;;11.23;4.65;;;;;;;27.78;47.30;96690.22;5097243;28;20020;-35
2022/06/24 04:25:52;;;;;;;10.00;4.90;;;;;;;27.81;47.34;96691.19;5097305;28;20020;-36
2022/06/24 04:28:18;;;;;;;12.43;5.22;;;;;;;27.79;47.45;96696.53;5097175;28;20469;-35
2022/06/24 04:30:43;;;;;;;9.15;4.72;;;;;;;27.80;47.55;96698.78;5097261;28;20032;-35
2022/06/24 04:33:09;;;;;;;8.43;4.90;;;;;;;27.79;47.17;96697.28;5097159;28;20358;-35
2022/06/24 04:35:35;;;;;;;9.88;5.50;;;;;;;27.79;47.12;96700.06;5096933;28;20107;-35
2022/06/24 04:38:06;;;;;;;8.45;4.78;;;;;;;27.77;47.48;96697.06;5096105;28;20028;-35
2022/06/24 04:40:32;;;;;;;14.60;4.75;;;;;;;27.75;47.36;96705.22;5097031;28;20024;-35
2022/06/24 04:42:57;;;;;;;10.23;5.65;;;;;;;27.72;47.71;96708.31;5096206;28;20537;-36
2022/06/24 04:45:24;;;;;;;8.63;4.88;;;;;;;27.71;47.54;96720.72;5096994;28;20106;-36
2022/06/24 04:47:49;;;;;;;12.45;5.00;;;;;;;27.77;47.02;96713.78;5097039;28;20031;-35
2022/06/24 04:50:15;;;;;;;8.30;4.80;;;;;;;27.71;47.51;96710.34;5097271;28;20020;-35
2022/06/24 04:52:41;;;;;;;11.85;4.90;;;;;;;27.73;47.16;96707.03;5096772;28;20020;-35
2022/06/24 04:55:08;;;;;;;8.40;4.65;;;;;;;27.73;47.61;96695.88;5096765;28;20027;-35
2022/06/24 04:57:33;;;;;;;10.35;4.90;;;;;;;27.74;47.27;96700.16;5096531;28;20106;-35
2022/06/24 04:59:59;;;;;;;10.57;5.10;;;;;;;27.69;47.33;96701.03;5096482;28;20028;-35
2022/06/24 05:02:25;;;;;;;9.63;5.05;;;;;;;27.74;47.61;96700.16;5096406;28;20054;-35
2022/06/24 05:04:51;;;;;;;9.18;4.97;;;;;;;27.76;47.18;96705.97;5095265;28;20028;-35
2022/06/24 05:07:16;;;;;;;12.70;4.72;;;;;;;27.75;47.25;96704.44;5096348;28;20484;-35
2022/06/24 05:09:43;;;;;;;8.35;4.57;;;;;;;27.74;47.13;96705.75;5095320;28;20026;-35
2022/06/24 05:12:09;;;;;;;9.73;4.93;;;;;;;27.69;47.70;96721.28;5094839;28;20032;-35
2022/06/24 05:14:35;;;;;;;7.78;4.43;;;;;;;27.74;47.23;96741.97;5095123;28;20046;-35
2022/06/24 05:17:01;;;;;;;12.20;4.85;;;;;;;27.69;47.34;96756.75;5094900;28;20479;-35
2022/06/24 05:19:27;;;;;;;10.15;4.20;;;;;;;27.70;47.21;96758.25;5094266;28;20051;-35
2022/06/24 05:21:54;;;;;;;12.13;5.07;;;;;;;27.65;47.09;96771.00;5094315;28;20047;-35
2022/06/24 05:24:19;;;;;;;11.98;4.68;;;;;;;27.63;47.37;96773.56;5093494;28;20055;-35
2022/06/24 05:26:46;;;;;;;9.35;4.53;;;;;;;27.63;47.50;96781.16;5094386;28;20477;-36
2022/06/24 05:29:11;;;;;;;11.38;4.43;;;;;;;27.62;47.53;96762.94;5093168;28;20020;-35
2022/06/24 05:31:38;;;;;;;11.95;4.88;;;;;;;27.59;47.26;96764.00;5094707;28;20771;-34
2022/06/24 05:34:04;;;;;;;11.27;4.55;;;;;;;27.54;47.24;96765.59;5092783;28;20047;-36
2022/06/24 05:36:30;;;;;;;11.68;4.60;;;;;;;27.65;47.12;96778.59;5094351;28;20027;-35
2022/06/24 05:38:56;;;;;;;10.23;5.18;;;;;;;27.65;47.27;96789.75;5094439;28;20024;-35
2022/06/24 05:41:22;;;;;;;11.48;4.78;;;;;;;27.62;47.08;96777.63;5094360;28;20028;-36
2022/06/24 05:43:48;;;;;;;10.13;4.97;;;;;;;27.62;47.53;96768.53;5094277;28;20026;-35
2022/06/24 05:46:14;;;;;;;13.55;4.57;;;;;;;27.57;47.31;96763.81;5094104;28;20090;-35
2022/06/24 05:48:40;;;;;;;9.95;4.40;;;;;;;27.59;47.46;96755.66;5094244;28;20030;-35
2022/06/24 05:51:10;;;;;;;9.75;4.68;;;;;;;27.49;47.50;96749.72;5094346;28;20292;-36
2022/06/24 05:56:21;;;;;;;10.32;4.60;;;;;;;27.57;47.10;96767.31;5093998;28;20051;-36
2022/06/24 05:58:47;;;;;;;12.98;4.93;;;;;;;27.61;47.07;96772.59;5092608;28;20475;-36
2022/06/24 06:01:12;;;;;;;10.70;4.70;;;;;;;27.56;47.22;96774.19;5093460;28;20077;-34
2022/06/24 06:03:38;;;;;;;13.55;4.85;;;;;;;27.51;47.39;96780.56;5093846;28;20052;-35
2022/06/24 06:06:05;;;;;;;11.43;4.60;;;;;;;27.58;47.60;96779.97;5092312;28;20102;-35
2022/06/24 06:08:31;;;;;;;15.25;5.25;;;;;;;27.43;48.13;96779.72;5093890;28;20375;-35
2022/06/24 06:10:56;;;;;;;12.93;4.97;;;;;;;27.32;48.46;96777.09;5093532;28;20111;-34
2022/06/24 06:13:23;;;;;;;9.02;4.38;;;;;;;27.42;48.28;96776.16;5093682;28;20024;-34
2022/06/24 06:15:48;;;;;;;11.70;4.70;;;;;;;27.50;47.58;96776.28;5093639;28;20020;-34
2022/06/24 06:18:14;;;;;;;8.50;4.45;;;;;;;27.52;47.76;96773.72;5093455;28;20551;-34
2022/06/24 06:20:39;;;;;;;10.30;4.43;;;;;;;27.38;48.18;96761.78;5093142;28;20103;-35
2022/06/24 06:23:05;;;;;;;11.55;4.70;;;;;;;27.36;47.95;96772.72;5093259;28;20070;-34
2022/06/24 06:25:31;;;;;;;13.50;5.07;;;;;;;27.38;47.86;96767.38;5093176;28;20077;-35
2022/06/24 06:27:57;;;;;;;14.68;4.68;;;;;;;27.33;47.99;96770.22;5091806;28;20024;-35
2022/06/24 06:30:22;;;;;;;10.10;4.13;;;;;;;27.31;48.27;96772.81;5093220;28;20030;-35
2022/06/24 06:32:48;;;;;;;14.68;4.97;;;;;;;27.32;47.71;96777.84;5092066;28;20050;-35
2022/06/24 06:35:14;;;;;;;13.40;5.40;;;;;;;27.44;47.40;96781.97;5092777;28;20444;-35
2022/06/24 06:37:40;;;;;;;13.32;4.63;;;;;;;27.26;48.03;96776.44;5093003;28;20036;-35
2022/06/24 06:40:07;;;;;;;9.27;4.53;;;;;;;27.38;47.73;96777.75;5093030;28;20028;-34
2022/06/24 06:42:32;;;;;;;13.95;4.47;;;;;;;27.23;47.95;96778.22;5092887;28;20024;-35
2022/06/24 06:45:00;;;;;;;12.45;4.40;;;;;;;27.28;48.06;96780.19;5092712;28;20024;-35
2022/06/24 06:47:26;;;;;;;11.63;4.13;;;;;;;27.36;47.85;96781.06;5092909;28;20028;-35
2022/06/24 06:49:51;;;;;;;11.18;4.68;;;;;;;27.36;47.79;96780.31;5092929;28;20485;-35
2022/06/24 06:52:18;;;;;;;14.23;4.13;;;;;;;27.42;47.49;96773.38;5092568;28;20016;-35
2022/06/24 06:54:43;;;;;;;14.48;4.45;;;;;;;27.39;47.48;96780.00;5092955;28;20082;-36
2022/06/24 06:57:09;;;;;;;9.80;4.35;;;;;;;27.38;46.91;96767.38;5092352;28;20496;-35
2022/06/24 06:59:34;;;;;;;13.40;3.95;;;;;;;27.42;46.94;96790.09;5092703;28;20059;-35
2022/06/24 07:02:00;;;;;;;14.73;3.70;;;;;;;27.29;47.60;96776.13;5092536;28;20113;-35
2022/06/24 07:04:25;;;;;;;13.15;4.50;;;;;;;27.22;47.57;96770.41;5091090;28;20031;-35
2022/06/24 07:06:53;;;;;;;12.40;3.95;;;;;;;27.26;47.77;96788.31;5092382;28;20389;-34
2022/06/24 07:09:19;;;;;;;9.40;3.83;;;;;;;27.41;47.25;96791.38;5092362;28;20048;-35
2022/06/24 07:11:44;;;;;;;15.57;4.60;;;;;;;27.40;47.02;96784.31;5091032;28;20028;-35
2022/06/24 07:14:10;;;;;;;11.32;4.10;;;;;;;27.40;46.87;96792.66;5092081;28;20440;-35
2022/06/24 07:16:35;;;;;;;13.05;3.88;;;;;;;27.39;47.09;96793.19;5092187;28;20035;-34
2022/06/24 07:19:01;;;;;;;11.73;4.32;;;;;;;27.15;47.13;96791.28;5092374;28;20024;-35
2022/06/24 07:21:27;;;;;;;15.48;4.32;;;;;;;27.18;47.33;96795.78;5092057;28;20032;-35
2022/06/24 07:23:52;;;;;;;12.65;3.53;;;;;;;27.33;46.71;96792.50;5092352;28;20073;-35
2022/06/24 07:26:18;;;;;;;15.00;3.92;;;;;;;27.31;47.02;96795.84;5092408;28;20027;-36
2022/06/24 07:28:43;;;;;;;16.10;4.07;;;;;;;27.28;47.17;96791.31;5092271;28;20439;-35
2022/06/24 07:31:17;;;;;;;13.27;3.90;;;;;;;27.25;47.08;96803.53;5092149;28;20066;-34
2022/06/24 07:33:44;;;;;;;14.50;3.70;;;;;;;27.36;46.55;96797.78;5091534;28;20068;-35
2022/06/24 07:36:10;;;;;;;20.77;4.47;;;;;;;27.11;47.30;96771.31;5092073;28;20035;-35
2022/06/24 07:38:35;;;;;;;11.27;3.40;;;;;;;26.98;47.77;96779.63;5091668;28;20028;-35
2022/06/24 07:41:01;;;;;;;11.85;4.20;;;;;;;27.23;46.64;96764.31;5091699;28;20031;-35
2022/06/24 07:43:27;;;;;;;10.45;4.22;;;;;;;27.20;46.95;96764.63;5090088;28;20426;-35
2022/06/24 07:45:53;;;;;;;11.32;3.83;;;;;;;27.39;46.28;96759.75;5091567;28;20024;-35
2022/06/24 07:48:19;;;;;;;11.43;3.65;;;;;;;27.37;46.14;96771.44;5091367;28;20032;-36
2022/06/24 07:50:45;;;;;;;19.50;4.75;;;;;;;27.16;46.61;96764.94;5091874;28;20512;-35
2022/06/24 07:53:10;;;;;;;11.85;3.55;;;;;;;27.15;46.97;96758.63;5091733;28;20055;-35
2022/06/24 07:58:20;;;;;;;15.70;3.95;;;;;;;27.29;46.50;96747.53;5091381;28;20055;-35
2022/06/24 08:00:48;;;;;;;13.20;3.38;;;;;;;27.35;46.11;96751.72;5091671;28;20031;-35
2022/06/24 08:03:14;;;;;;;11.40;3.78;;;;;;;27.44;46.08;96754.13;5091380;28;20118;-35
2022/06/24 08:05:40;;;;;;;14.13;5.13;;;;;;;27.31;46.51;96742.19;5090435;28;20051;-36
2022/06/24 08:08:06;;;;;;;14.45;5.10;;;;;;;27.41;45.89;96754.41;5091702;28;20511;-35
2022/06/24 08:10:31;;;;;;;14.68;4.50;;;;;;;27.38;46.43;96753.44;5091174;28;20035;-35
2022/06/24 08:12:57;;;;;;;15.55;4.57;;;;;;;27.36;46.22;96744.84;5091534;28;20020;-36
2022/06/24 08:15:22;;;;;;;14.50;4.80;;;;;;;27.40;46.25;96748.09;5091532;28;20054;-36
2022/06/24 08:17:48;;;;;;;12.80;4.00;;;;;;;27.45;46.25;96741.66;5091659;28;20070;-36
2022/06/24 08:20:14;;;;;;;13.88;4.75;;;;;;;27.37;46.93;96729.66;5091699;28;20020;-35
2022/06/24 08:22:40;;;;;;;18.15;5.28;;;;;;;26.76;49.27;96719.44;5090989;28;20376;-31
2022/06/24 08:25:06;;;;;;;20.50;5.53;;;;;;;26.41;50.32;96723.22;5090856;28;20031;-35
2022/06/24 08:27:31;;;;;;;19.63;5.60;;;;;;;27.04;47.89;96733.72;5090475;28;20040;-34
2022/06/24 08:29:57;;;;;;;14.60;4.97;;;;;;;27.11;47.82;96737.91;5091126;28;20039;-36
2022/06/24 08:32:22;;;;;;;20.05;4.65;;;;;;;27.24;47.19;96748.34;5105376;28;20081;-34
2022/06/24 08:34:49;;;;;;;14.73;4.43;;;;;;;27.36;46.54;96750.44;5111057;28;20016;-34
2022/06/24 08:37:15;;;;;;;13.60;4.90;;;;;;;27.36;46.48;96742.06;5111466;28;20020;-34
2022/06/24 08:39:41;;;;;;;16.17;3.90;;;;;;;27.34;46.91;96744.63;5112938;28;20031;-35
2022/06/24 08:42:11;;;;;;;23.05;5.30;;;;;;;27.22;47.05;96751.66;5094468;28;20393;-34
2022/06/24 08:44:37;;;;;;;15.05;4.95;;;;;;;27.14;47.49;96739.66;5092310;28;20068;-34
2022/06/24 08:47:03;;;;;;;10.80;3.95;;;;;;;27.23;47.02;96753.16;5092689;28;20372;-34
2022/06/24 08:49:32;;;;;;;17.90;4.38;;;;;;;27.16;47.35;96734.31;5092843;28;20032;-34
2022/06/24 08:51:59;;;;;;;16.08;4.20;;;;;;;27.13;47.41;96732.59;5093064;28;20024;-34
2022/06/24 08:54:28;;;;;;;14.98;3.63;;;;;;;27.20;46.96;96734.72;5092954;28;20022;-34
2022/06/24 08:56:54;;;;;;;19.98;4.32;;;;;;;27.09;47.44;96707.06;5096399;28;20127;-35
2022/06/24 08:59:19;;;;;;;16.30;5.10;;;;;;;27.12;47.54;96711.59;5096568;28;20104;-35
2022/06/24 09:01:47;;;;;;;16.83;4.55;;;;;;;27.08;47.90;96716.69;5095252;28;20025;-35
2022/06/24 09:04:13;;;;;;;16.17;4.07;;;;;;;27.15;47.34;96722.41;5096634;28;20024;-34
2022/06/24 09:06:40;;;;;;;10.73;3.92;;;;;;;27.16;47.10;96709.25;5096530;28;20024;-34
2022/06/24 09:09:06;;;;;;;17.23;4.38;;;;;;;27.26;47.01;96717.94;5096364;28;20483;-34
2022/06/24 09:11:40;;;;;;;15.13;3.97;;;;;;;27.15;46.16;96699.41;5096377;28;20020;-34
2022/06/24 09:14:07;;;;;;;14.63;3.97;;;;;;;27.14;46.52;96692.31;5096449;28;20020;-36
2022/06/24 09:16:37;;;;;;;19.48;4.07;;;;;;;26.51;47.29;96699.31;5096431;28;20024;-31
2022/06/24 09:19:05;;;;;;;34.67;4.03;;;;;;;26.33;47.63;96713.97;5095994;28;20020;-31
2022/06/24 09:21:39;;;;;;;20.70;3.17;;;;;;;26.32;46.67;96698.56;5096495;28;20028;-31
2022/06/24 09:24:06;;;;;;;17.15;3.40;;;;;;;26.39;46.71;96706.31;5096072;28;20043;-35
2022/06/24 09:26:33;;;;;;;18.35;3.83;;;;;;;26.83;45.81;96688.97;5096203;28;20421;-34
2022/06/24 09:29:00;;;;;;;17.60;3.13;;;;;;;27.03;45.25;96686.94;5096087;28;20031;-35
2022/06/24 09:31:27;;;;;;;23.27;3.72;;;;;;;27.09;44.93;96696.69;5096124;28;20030;-35
2022/06/24 09:33:54;;;;;;;17.42;3.67;;;;;;;26.96;44.19;96707.03;5096198;28;20028;-35
2022/06/24 09:36:27;;;;;;;18.20;2.88;;;;;;;27.03;44.80;96701.59;5096189;28;20035;-35
2022/06/24 09:39:04;;;;;;;16.75;4.47;;;;;;;27.16;43.99;96700.91;5095871;28;20479;-35
2022/06/24 09:41:41;;;;;;;15.75;2.80;;;;;;;27.13;44.09;96729.78;5095921;28;20098;-35
2022/06/24 09:44:06;;;;;;;18.33;3.25;;;;;;;27.04;44.11;96716.28;5096015;28;20047;-34
2022/06/24 09:46:32;;;;;;;13.68;3.50;;;;;;;27.07;43.61;96699.28;5095999;28;20456;-35
2022/06/24 09:49:06;;;;;;;17.55;3.85;;;;;;;27.24;43.86;96701.00;5095701;28;20020;-34
2022/06/24 09:51:34;;;;;;;23.55;3.08;;;;;;;27.22;43.44;96700.78;5095640;28;20016;-34
2022/06/24 09:54:00;;;;;;;15.15;3.50;;;;;;;27.27;43.25;96697.94;5095599;28;20023;-35
2022/06/24 09:56:27;;;;;;;10.95;2.75;;;;;;;27.29;43.78;96709.28;5095445;28;20067;-36
2022/06/24 10:01:41;;;;;;;12.38;3.15;;;;;;;27.34;43.93;96704.88;5095389;28;20027;-35
2022/06/24 10:04:15;;;;;;;12.00;3.30;;;;;;;27.36;43.78;96708.66;5095484;28;20030;-35
2022/06/24 10:06:46;;;;;;;13.38;3.80;;;;;;;27.18;43.50;96706.69;5095547;28;20081;-35
2022/06/24 10:09:12;;;;;;;10.70;2.35;;;;;;;27.18;43.36;96706.69;5095624;28;20024;-34
2022/06/24 10:11:42;;;;;;;14.65;4.13;;;;;;;27.29;43.46;96711.31;5095328;28;20031;-34
2022/06/24 10:14:08;;;;;;;13.27;2.50;;;;;;;27.30;43.67;96713.56;5094231;28;20020;-35
2022/06/24 10:16:35;;;;;;;13.90;2.78;;;;;;;27.29;43.43;96712.06;5095216;28;20024;-34
2022/06/24 10:19:03;;;;;;;11.93;2.38;;;;;;;27.21;42.77;96702.81;5095205;28;20048;-35
2022/06/24 10:21:29;;;;;;;14.43;2.83;;;;;;;27.27;42.36;96703.50;5095443;28;20110;-35
2022/06/24 10:23:56;;;;;;;10.57;2.92;;;;;;;27.37;42.54;96701.06;5095047;28;20107;-35
2022/06/24 10:26:34;;;;;;;11.48;2.85;;;;;;;27.37;42.32;96701.06;5095187;28;20028;-35
2022/06/24 10:29:03;;;;;;;11.10;2.60;;;;;;;27.41;42.33;96684.78;5094821;28;20020;-35
2022/06/24 10:31:56;;;;;;;10.18;2.40;;;;;;;27.40;41.98;96686.06;5095159;28;20472;-35
2022/06/24 10:34:30;;;;;;;10.63;2.70;;;;;;;27.41;41.62;96699.47;5094910;28;20031;-35
2022/06/24 10:37:15;;;;;;;11.73;2.63;;;;;;;27.38;42.15;96716.47;5094834;28;20079;-35
2022/06/24 10:39:58;;;;;;;10.30;2.80;;;;;;;27.39;41.59;96710.38;5094765;28;20047;-34
2022/06/24 10:42:24;;;;;;;11.55;2.78;;;;;;;27.39;41.52;96724.31;5100956;28;20024;-35
2022/06/24 10:45:02;;;;;;;12.55;3.10;;;;;;;27.18;41.00;96698.34;5093449;28;20059;-35
2022/06/24 10:47:36;;;;;;;13.52;2.70;;;;;;;27.36;41.18;96680.81;5094541;28;20023;-35
2022/06/24 10:50:02;;;;;;;11.32;2.72;;;;;;;27.35;41.05;96690.44;5094603;28;20117;-35
2022/06/24 10:52:48;;;;;;;10.32;2.88;;;;;;;27.36;40.73;96719.78;5094436;28;20016;-35
2022/06/24 10:55:28;;;;;;;10.38;2.20;;;;;;;27.34;40.81;96688.94;5094625;28;20395;-36
2022/06/24 10:57:57;;;;;;;10.07;2.20;;;;;;;27.35;41.07;96687.66;5094298;28;20496;-34
2022/06/24 11:00:29;;;;;;;10.73;3.05;;;;;;;27.25;41.23;96694.91;5094301;28;20035;-35
2022/06/24 11:03:03;;;;;;;13.40;4.28;;;;;;;27.29;40.56;96673.09;5094214;28;20061;-35
2022/06/24 11:05:40;;;;;;;9.50;3.90;;;;;;;27.22;41.14;96675.72;5094513;28;20048;-35
2022/06/24 11:08:14;;;;;;;12.18;3.97;;;;;;;27.27;40.87;96684.00;5092947;28;20138;-35
2022/06/24 11:10:41;;;;;;;12.25;3.80;;;;;;;27.37;40.77;96687.13;5094305;28;20024;-35
2022/06/24 11:13:06;;;;;;;14.20;3.83;;;;;;;27.46;40.46;96684.66;5094349;28;20024;-35
2022/06/24 11:15:49;;;;;;;15.65;4.10;;;;;;;27.47;39.78;96685.41;5094390;28;20103;-35
2022/06/24 11:18:17;;;;;;;12.05;3.47;;;;;;;27.48;39.95;96687.69;5093594;28;20028;-35
2022/06/24 11:20:59;;;;;;;9.15;3.05;;;;;;;27.49;39.95;96696.78;5094281;28;20024;-35
2022/06/24 11:23:28;;;;;;;11.32;3.45;;;;;;;27.51;39.76;96691.44;5093915;28;20535;-36
2022/06/24 11:26:14;;;;;;;11.98;2.92;;;;;;;27.48;39.93;96700.84;5093923;28;20078;-35
2022/06/24 11:28:40;;;;;;;12.65;3.30;;;;;;;27.34;40.20;96714.00;5094456;28;20452;-35
2022/06/24 11:31:33;;;;;;;10.07;2.30;;;;;;;27.38;40.07;96706.09;5094257;28;20024;-35
2022/06/24 11:33:58;;;;;;;7.13;2.58;;;;;;;27.58;39.16;96698.44;5093838;28;20037;-35
2022/06/24 11:36:26;;;;;;;6.90;2.20;;;;;;;27.54;39.01;96699.47;5093880;28;20050;-35
2022/06/24 11:38:57;;;;;;;9.00;2.65;;;;;;;27.53;39.64;96692.41;5094085;28;20028;-35
2022/06/24 11:41:30;;;;;;;8.60;2.45;;;;;;;27.52;39.36;96706.88;5093497;28;20032;-35
2022/06/24 11:43:56;;;;;;;14.13;2.90;;;;;;;27.52;39.65;96687.38;5093882;28;20022;-35